Long Island, Maine
Current Conditions -  °F | °C
As of 3:51 PM on Saturday 22 Nov 2014 (Local Time) from KPWM Reporting Station
Broken Clouds Broken Clouds  
Wind Chill: 29°   Ceiling: 15000
Heat Index: 37°   Visibility: 10mi
Dew Point:   Wind: 13mph
Humidity: 31%   Direction: 220°SW
Pressure: 30.06"   Gusts: NA
Location:  43.68°N, 70.17°W
Report Text: KPWM 222051Z 22011KT 10SM BKN150 03/M13 A3006 RMK AO2 SLP180 T00281128 56034
Loading
Personal Weather Stations






























Interactive Weather Map New forecast layout! Learn more

10-Day Weather Forecast

Advertisements
Track Severe Weather on mobile